In Rescue
 
Open Full Screen Window  High Contrast Mode
September 19, 2019 4:53 PM EDT
Weather Information
Wind Direction
  ---
Wind Speed
  00 kt (0 mph)
Wind Gust
  00 kt (0 mph)
Altimeter
30.05 in
Visibility
10 SM
Temperature
29° C
84° F
Dewpoint
15° C
59° F
Humidity
43%
Sky Condition
Clear
VFR

METAR KACB 192053Z AUTO 00000KT 10SM CLR 29/15 A3005 RMK AO2 T02850151

FAA Disclaimer: The data displayed is for advisory purposes only and is not to be used for flight planning or operations.